Time;durP1;ratioP1;P1;durP2;ratioP2;P2;SDS_P1;SDS_P2;PMS_P1;PMS_P2;Temp;Humidity;BMP_temperature;BMP_pressure;BME280_temperature;BME280_humidity;BME280_pressure;Samples;Min_cycle;Max_cycle;Signal;HPM_P1;HPM_P2
2022/03/14 00:00:16;;;;;;;;;;;20.90;29.40;;;;;;685905;28;866;-82
2022/03/14 00:00:37;;;;;;;;;;;21.00;30.20;;;;;;685964;28;799;-82
2022/03/14 00:00:58;;;;;;;;;;;20.90;29.40;;;;;;686038;28;791;-83
2022/03/14 00:01:18;;;;;;;;;;;20.90;29.40;;;;;;685925;28;866;-82
2022/03/14 00:01:40;;;;;;;;;;;20.90;29.50;;;;;;686027;28;875;-82
2022/03/14 00:02:01;;;;;;;;;;;20.90;29.30;;;;;;686172;28;807;-81
2022/03/14 00:02:21;;;;;;;;;;;20.90;29.40;;;;;;685902;28;1536;-81
2022/03/14 00:02:42;;;;;;;;;;;20.90;29.40;;;;;;685890;28;870;-82
2022/03/14 00:03:04;;;;;;;;;;;20.90;29.60;;;;;;685936;28;890;-82
2022/03/14 00:03:25;;;;;;;;;;;20.90;29.40;;;;;;686007;28;803;-83
2022/03/14 00:03:57;;;;;;;;;;;20.90;29.40;;;;;;686014;28;1083;-82
2022/03/14 00:04:17;;;;;;;;;;;20.90;29.40;;;;;;687762;28;1326;-81
2022/03/14 00:04:38;;;;;;;;;;;20.90;29.50;;;;;;688634;28;913;-82
2022/03/14 00:05:00;;;;;;;;;;;20.90;29.50;;;;;;686107;28;1517;-82
2022/03/14 00:05:21;;;;;;;;;;;20.90;29.50;;;;;;685918;28;910;-82
2022/03/14 00:05:42;;;;;;;;;;;20.90;29.60;;;;;;685990;28;834;-82
2022/03/14 00:06:03;;;;;;;;;;;20.90;29.50;;;;;;685897;28;1094;-83
2022/03/14 00:06:24;;;;;;;;;;;20.90;29.50;;;;;;685964;28;870;-83
2022/03/14 00:06:48;;;;;;;;;;;20.90;29.60;;;;;;685975;28;869;-83
2022/03/14 00:07:10;;;;;;;;;;;19.20;28.90;;;;;;683286;28;1331;-83
2022/03/14 00:07:31;;;;;;;;;;;20.90;29.50;;;;;;683370;29;819;-83
2022/03/14 00:07:52;;;;;;;;;;;20.90;29.50;;;;;;684396;28;1005;-82
2022/03/14 00:08:13;;;;;;;;;;;20.90;29.60;;;;;;685883;28;790;-84
2022/03/14 00:08:34;;;;;;;;;;;20.90;29.50;;;;;;685582;28;1294;-83
2022/03/14 00:08:55;;;;;;;;;;;20.90;29.60;;;;;;685912;28;823;-84
2022/03/14 00:09:16;;;;;;;;;;;20.90;29.70;;;;;;685998;28;914;-83
2022/03/14 00:09:37;;;;;;;;;;;20.90;29.50;;;;;;685980;28;795;-82
2022/03/14 00:09:57;;;;;;;;;;;20.90;29.50;;;;;;683281;28;1488;-82
2022/03/14 00:10:18;;;;;;;;;;;20.90;29.50;;;;;;683792;28;913;-82
2022/03/14 00:10:39;;;;;;;;;;;20.90;29.50;;;;;;683509;28;1252;-82
2022/03/14 00:10:59;;;;;;;;;;;20.90;29.60;;;;;;683383;29;874;-82
2022/03/14 00:11:20;;;;;;;;;;;20.90;29.80;;;;;;683261;29;823;-82
2022/03/14 00:11:40;;;;;;;;;;;20.90;29.80;;;;;;683704;28;811;-81
2022/03/14 00:12:01;;;;;;;;;;;20.90;29.60;;;;;;685990;28;799;-84
2022/03/14 00:12:25;;;;;;;;;;;20.90;29.70;;;;;;683511;28;1194;-82
2022/03/14 00:12:48;;;;;;;;;;;20.90;29.50;;;;;;686021;28;846;-84
2022/03/14 00:13:10;;;;;;;;;;;20.90;29.50;;;;;;686005;28;822;-82
2022/03/14 00:13:31;;;;;;;;;;;20.90;29.50;;;;;;685986;28;886;-82
2022/03/14 00:13:55;;;;;;;;;;;20.90;29.90;;;;;;686016;28;831;-83
2022/03/14 00:14:16;;;;;;;;;;;20.90;30.10;;;;;;686131;28;814;-83
2022/03/14 00:14:36;;;;;;;;;;;20.90;29.80;;;;;;686324;28;1257;-84
2022/03/14 00:14:58;;;;;;;;;;;20.90;29.50;;;;;;685746;28;1902;-81
2022/03/14 00:15:18;;;;;;;;;;;20.90;29.50;;;;;;683130;29;1072;-81
2022/03/14 00:15:40;;;;;;;;;;;20.90;29.80;;;;;;683348;29;847;-84
2022/03/14 00:16:03;;;;;;;;;;;20.90;30.00;;;;;;683395;29;906;-82
2022/03/14 00:16:25;;;;;;;;;;;20.90;29.80;;;;;;684247;28;873;-88
2022/03/14 00:16:46;;;;;;;;;;;20.90;29.70;;;;;;686117;28;831;-87
2022/03/14 00:17:11;;;;;;;;;;;20.90;29.80;;;;;;684209;28;898;-85
2022/03/14 00:17:31;;;;;;;;;;;20.90;29.80;;;;;;685879;28;875;-86
2022/03/14 00:17:53;;;;;;;;;;;20.90;29.80;;;;;;686045;28;835;-85
2022/03/14 00:18:13;;;;;;;;;;;20.90;29.90;;;;;;686003;28;799;-85
2022/03/14 00:18:34;;;;;;;;;;;20.90;29.80;;;;;;685957;28;859;-84
2022/03/14 00:18:57;;;;;;;;;;;20.90;29.60;;;;;;686117;28;842;-84
2022/03/14 00:19:20;;;;;;;;;;;20.90;30.50;;;;;;686240;28;843;-86
2022/03/14 00:19:41;;;;;;;;;;;20.90;29.70;;;;;;686234;28;862;-87
2022/03/14 00:20:04;;;;;;;;;;;20.90;29.80;;;;;;686203;28;838;-86
2022/03/14 00:20:24;;;;;;;;;;;20.90;29.80;;;;;;686162;28;787;-87
2022/03/14 00:20:48;;;;;;;;;;;20.90;29.50;;;;;;686226;28;811;-84
2022/03/14 00:21:10;;;;;;;;;;;20.90;29.40;;;;;;688588;28;929;-85
2022/03/14 00:21:38;;;;;;;;;;;20.90;29.50;;;;;;688725;28;913;-86
2022/03/14 00:22:00;;;;;;;;;;;20.90;29.40;;;;;;688646;28;907;-82
2022/03/14 00:22:20;;;;;;;;;;;20.90;29.50;;;;;;688470;28;1645;-85
2022/03/14 00:22:41;;;;;;;;;;;20.90;29.50;;;;;;688589;28;815;-83
2022/03/14 00:23:02;;;;;;;;;;;20.90;29.50;;;;;;687037;28;843;-80
2022/03/14 00:23:24;;;;;;;;;;;20.90;29.40;;;;;;686026;28;799;-84
2022/03/14 00:23:45;;;;;;;;;;;20.90;29.80;;;;;;686048;28;819;-83
2022/03/14 00:24:07;;;;;;;;;;;20.90;29.50;;;;;;686128;28;812;-86
2022/03/14 00:24:28;;;;;;;;;;;20.90;29.40;;;;;;686167;28;818;-83
2022/03/14 00:24:48;;;;;;;;;;;20.90;29.50;;;;;;686252;28;811;-85
2022/03/14 00:25:10;;;;;;;;;;;20.90;29.60;;;;;;686217;28;988;-86
2022/03/14 00:25:30;;;;;;;;;;;20.90;29.50;;;;;;686186;28;795;-84
2022/03/14 00:25:51;;;;;;;;;;;20.90;29.60;;;;;;686216;28;858;-84
2022/03/14 00:26:11;;;;;;;;;;;20.90;29.50;;;;;;686295;28;866;-86
2022/03/14 00:26:33;;;;;;;;;;;19.40;29.10;;;;;;688541;28;1126;-86
2022/03/14 00:26:54;;;;;;;;;;;20.90;29.80;;;;;;688697;28;760;-86
2022/03/14 00:27:15;;;;;;;;;;;20.90;29.50;;;;;;688784;28;815;-86
2022/03/14 00:27:36;;;;;;;;;;;20.90;29.50;;;;;;688616;28;878;-85
2022/03/14 00:27:57;;;;;;;;;;;20.90;29.50;;;;;;688575;28;1391;-82
2022/03/14 00:28:18;;;;;;;;;;;20.90;29.50;;;;;;688060;28;850;-86
2022/03/14 00:28:38;;;;;;;;;;;20.90;29.50;;;;;;685961;28;834;-84
2022/03/14 00:28:59;;;;;;;;;;;20.90;29.50;;;;;;686104;28;795;-84
2022/03/14 00:29:20;;;;;;;;;;;20.80;29.60;;;;;;685968;28;930;-85
2022/03/14 00:29:41;;;;;;;;;;;20.80;29.60;;;;;;686152;28;791;-82
2022/03/14 00:30:04;;;;;;;;;;;20.90;29.50;;;;;;687164;28;850;-81
2022/03/14 00:30:25;;;;;;;;;;;20.20;29.20;;;;;;687215;28;806;-82
2022/03/14 00:30:46;;;;;;;;;;;20.80;29.50;;;;;;687092;28;818;-82
2022/03/14 00:31:07;;;;;;;;;;;20.90;29.60;;;;;;687261;28;806;-83
2022/03/14 00:31:28;;;;;;;;;;;20.80;29.50;;;;;;687648;28;822;-81
2022/03/14 00:31:48;;;;;;;;;;;20.80;29.50;;;;;;687650;28;835;-81
2022/03/14 00:32:09;;;;;;;;;;;20.80;29.70;;;;;;687237;28;897;-82
2022/03/14 00:32:30;;;;;;;;;;;20.80;29.60;;;;;;687230;28;830;-82
2022/03/14 00:32:51;;;;;;;;;;;20.90;29.70;;;;;;687192;28;830;-83
2022/03/14 00:33:12;;;;;;;;;;;20.80;29.70;;;;;;687437;28;791;-81
2022/03/14 00:33:32;;;;;;;;;;;20.80;29.90;;;;;;687212;28;807;-80
2022/03/14 00:33:53;;;;;;;;;;;20.80;29.60;;;;;;687632;28;1618;-82
2022/03/14 00:34:14;;;;;;;;;;;20.80;29.40;;;;;;687072;28;862;-81
2022/03/14 00:34:35;;;;;;;;;;;20.90;29.60;;;;;;686773;28;850;-82
2022/03/14 00:34:56;;;;;;;;;;;20.80;29.60;;;;;;686855;28;1937;-82
2022/03/14 00:35:16;;;;;;;;;;;20.80;29.40;;;;;;687042;28;871;-81
2022/03/14 00:35:37;;;;;;;;;;;20.80;29.60;;;;;;687120;28;863;-83
2022/03/14 00:35:57;;;;;;;;;;;20.80;29.60;;;;;;687214;28;756;-82
2022/03/14 00:36:19;;;;;;;;;;;20.80;30.00;;;;;;687214;28;775;-82
2022/03/14 00:36:42;;;;;;;;;;;20.80;29.80;;;;;;687119;28;810;-81
2022/03/14 00:37:03;;;;;;;;;;;20.80;29.50;;;;;;687111;28;874;-83
2022/03/14 00:37:25;;;;;;;;;;;20.80;29.50;;;;;;687405;28;882;-81
2022/03/14 00:37:45;;;;;;;;;;;20.80;29.60;;;;;;687302;28;850;-82
2022/03/14 00:38:07;;;;;;;;;;;20.80;29.80;;;;;;687449;28;969;-82
2022/03/14 00:38:27;;;;;;;;;;;20.80;29.90;;;;;;687081;28;894;-82
2022/03/14 00:38:48;;;;;;;;;;;20.40;29.30;;;;;;687384;28;894;-83
2022/03/14 00:39:09;;;;;;;;;;;20.80;29.50;;;;;;687126;28;862;-83
2022/03/14 00:39:29;;;;;;;;;;;20.80;29.70;;;;;;687256;28;950;-81
2022/03/14 00:39:51;;;;;;;;;;;20.80;29.60;;;;;;686976;28;866;-82
2022/03/14 00:40:11;;;;;;;;;;;20.80;29.90;;;;;;689744;28;1196;-83
2022/03/14 00:40:32;;;;;;;;;;;20.80;29.50;;;;;;689772;28;803;-82
2022/03/14 00:40:52;;;;;;;;;;;20.80;30.00;;;;;;689740;28;847;-82
2022/03/14 00:41:13;;;;;;;;;;;20.80;29.60;;;;;;689733;28;799;-82
2022/03/14 00:41:34;;;;;;;;;;;20.80;29.50;;;;;;689553;28;862;-82
2022/03/14 00:41:55;;;;;;;;;;;20.80;30.00;;;;;;688469;28;953;-86
2022/03/14 00:42:15;;;;;;;;;;;20.80;29.90;;;;;;686158;28;827;-83
2022/03/14 00:42:36;;;;;;;;;;;20.80;29.40;;;;;;686139;28;791;-83
2022/03/14 00:42:57;;;;;;;;;;;20.80;29.40;;;;;;686185;28;857;-85
2022/03/14 00:43:17;;;;;;;;;;;20.80;30.50;;;;;;686304;28;783;-82
2022/03/14 00:43:38;;;;;;;;;;;20.80;29.60;;;;;;686235;28;1452;-84
2022/03/14 00:43:59;;;;;;;;;;;20.80;29.40;;;;;;686033;28;791;-83
2022/03/14 00:44:19;;;;;;;;;;;20.80;29.40;;;;;;685989;28;802;-84
2022/03/14 00:44:41;;;;;;;;;;;20.80;29.40;;;;;;685875;28;882;-82
2022/03/14 00:45:03;;;;;;;;;;;20.80;29.50;;;;;;685900;28;945;-83
2022/03/14 00:45:24;;;;;;;;;;;20.80;29.70;;;;;;685973;28;826;-86
2022/03/14 00:45:45;;;;;;;;;;;20.80;29.70;;;;;;686222;28;877;-82
2022/03/14 00:46:05;;;;;;;;;;;20.80;30.00;;;;;;688539;28;1269;-84
2022/03/14 00:46:26;;;;;;;;;;;20.80;29.80;;;;;;688609;28;981;-83
2022/03/14 00:46:47;;;;;;;;;;;20.80;29.90;;;;;;688612;28;823;-83
2022/03/14 00:47:08;;;;;;;;;;;20.80;29.50;;;;;;688633;28;870;-84
2022/03/14 00:47:28;;;;;;;;;;;20.80;29.60;;;;;;688630;28;854;-85
2022/03/14 00:47:50;;;;;;;;;;;20.80;29.90;;;;;;688187;28;889;-87
2022/03/14 00:48:11;;;;;;;;;;;20.80;29.60;;;;;;686086;28;854;-83
2022/03/14 00:48:32;;;;;;;;;;;20.80;29.60;;;;;;686119;28;862;-84
2022/03/14 00:48:53;;;;;;;;;;;20.80;29.50;;;;;;686142;28;881;-84
2022/03/14 00:49:14;;;;;;;;;;;20.80;29.50;;;;;;686163;28;807;-82
2022/03/14 00:49:35;;;;;;;;;;;20.80;29.80;;;;;;686175;28;791;-84
2022/03/14 00:49:55;;;;;;;;;;;20.80;29.40;;;;;;686257;28;886;-84
2022/03/14 00:50:16;;;;;;;;;;;20.80;29.50;;;;;;686105;28;925;-82
2022/03/14 00:50:37;;;;;;;;;;;20.80;29.60;;;;;;686104;28;1138;-83
2022/03/14 00:50:57;;;;;;;;;;;20.80;29.60;;;;;;685841;28;938;-85
2022/03/14 00:51:18;;;;;;;;;;;20.80;29.80;;;;;;685898;28;946;-85
2022/03/14 00:51:39;;;;;;;;;;;20.80;29.90;;;;;;685900;28;941;-86
2022/03/14 00:52:00;;;;;;;;;;;20.80;29.50;;;;;;686000;28;870;-86
2022/03/14 00:52:21;;;;;;;;;;;20.80;29.50;;;;;;686208;28;1261;-83
2022/03/14 00:52:42;;;;;;;;;;;20.80;29.40;;;;;;688617;28;906;-85
2022/03/14 00:53:03;;;;;;;;;;;20.80;29.40;;;;;;688545;28;811;-85
2022/03/14 00:53:23;;;;;;;;;;;20.80;29.40;;;;;;688628;28;961;-86
2022/03/14 00:53:44;;;;;;;;;;;20.80;29.40;;;;;;688616;28;914;-85
2022/03/14 00:54:04;;;;;;;;;;;20.80;29.60;;;;;;688102;28;1236;-85
2022/03/14 00:54:25;;;;;;;;;;;20.80;29.70;;;;;;686063;28;865;-85
2022/03/14 00:54:46;;;;;;;;;;;20.80;29.50;;;;;;685895;28;1430;-84
2022/03/14 00:55:06;;;;;;;;;;;20.80;29.50;;;;;;688370;28;1938;-85
2022/03/14 00:55:27;;;;;;;;;;;20.80;29.70;;;;;;688590;28;1034;-83
2022/03/14 00:55:47;;;;;;;;;;;20.80;29.50;;;;;;688665;28;858;-83
2022/03/14 00:56:08;;;;;;;;;;;20.80;29.50;;;;;;688784;28;889;-82
2022/03/14 00:56:29;;;;;;;;;;;20.80;29.50;;;;;;688532;28;877;-85
2022/03/14 00:56:50;;;;;;;;;;;20.80;29.50;;;;;;685811;28;1225;-85
2022/03/14 00:57:11;;;;;;;;;;;20.80;29.80;;;;;;685885;28;913;-82
2022/03/14 00:57:31;;;;;;;;;;;20.80;29.80;;;;;;685871;28;885;-85
2022/03/14 00:57:52;;;;;;;;;;;20.80;29.50;;;;;;685889;28;957;-82
2022/03/14 00:58:12;;;;;;;;;;;20.80;29.60;;;;;;685919;28;822;-83
2022/03/14 00:58:33;;;;;;;;;;;20.80;29.80;;;;;;685893;28;795;-83
2022/03/14 00:58:54;;;;;;;;;;;20.80;29.70;;;;;;686102;28;833;-84
2022/03/14 00:59:15;;;;;;;;;;;20.80;29.50;;;;;;686171;28;783;-82
2022/03/14 00:59:36;;;;;;;;;;;20.80;29.50;;;;;;686059;28;956;-82
2022/03/14 00:59:57;;;;;;;;;;;20.80;29.50;;;;;;686004;28;1314;-82
2022/03/14 01:00:17;;;;;;;;;;;20.80;29.70;;;;;;686069;28;767;-83
2022/03/14 01:00:38;;;;;;;;;;;20.80;29.60;;;;;;686068;28;814;-85
2022/03/14 01:00:59;;;;;;;;;;;20.80;29.90;;;;;;686189;28;818;-82
2022/03/14 01:01:21;;;;;;;;;;;20.80;29.60;;;;;;686039;28;854;-82
2022/03/14 01:01:41;;;;;;;;;;;20.80;29.70;;;;;;688414;28;1380;-82
2022/03/14 01:02:02;;;;;;;;;;;20.80;29.90;;;;;;688752;28;775;-83
2022/03/14 01:02:24;;;;;;;;;;;20.80;29.60;;;;;;688619;28;849;-82
2022/03/14 01:02:48;;;;;;;;;;;20.80;29.70;;;;;;688615;28;814;-84
2022/03/14 01:03:08;;;;;;;;;;;20.80;29.70;;;;;;685767;28;1560;-82
2022/03/14 01:03:29;;;;;;;;;;;20.80;29.50;;;;;;685952;28;782;-82
2022/03/14 01:03:50;;;;;;;;;;;20.70;29.40;;;;;;685831;28;926;-82
2022/03/14 01:04:10;;;;;;;;;;;20.80;29.50;;;;;;685731;28;1543;-82
2022/03/14 01:04:31;;;;;;;;;;;20.80;29.60;;;;;;685859;28;810;-82
2022/03/14 01:04:51;;;;;;;;;;;20.80;29.60;;;;;;686025;28;838;-83
2022/03/14 01:05:12;;;;;;;;;;;20.70;29.60;;;;;;686043;28;827;-82
2022/03/14 01:05:33;;;;;;;;;;;20.70;29.50;;;;;;686099;28;901;-83
2022/03/14 01:05:54;;;;;;;;;;;20.70;29.60;;;;;;686013;28;806;-84
2022/03/14 01:06:14;;;;;;;;;;;20.80;29.50;;;;;;688419;28;1238;-83
2022/03/14 01:06:35;;;;;;;;;;;20.80;29.50;;;;;;688559;28;845;-84
2022/03/14 01:06:56;;;;;;;;;;;20.80;29.50;;;;;;688529;28;791;-82
2022/03/14 01:07:16;;;;;;;;;;;20.80;29.70;;;;;;688569;28;861;-82
2022/03/14 01:07:37;;;;;;;;;;;20.70;29.60;;;;;;688587;28;929;-82
2022/03/14 01:07:58;;;;;;;;;;;20.70;29.50;;;;;;688204;28;787;-83
2022/03/14 01:08:18;;;;;;;;;;;20.80;29.50;;;;;;686011;28;1425;-84
2022/03/14 01:08:40;;;;;;;;;;;20.80;30.60;;;;;;686111;28;877;-83
2022/03/14 01:09:01;;;;;;;;;;;20.70;29.50;;;;;;686097;28;815;-85
2022/03/14 01:09:21;;;;;;;;;;;20.80;29.50;;;;;;686099;28;866;-83
2022/03/14 01:09:42;;;;;;;;;;;20.70;29.80;;;;;;686071;28;803;-83
2022/03/14 01:10:03;;;;;;;;;;;20.70;29.40;;;;;;685537;28;1382;-84
2022/03/14 01:10:24;;;;;;;;;;;20.80;29.50;;;;;;685884;28;886;-85
2022/03/14 01:10:47;;;;;;;;;;;20.70;29.50;;;;;;685773;28;858;-83
2022/03/14 01:11:08;;;;;;;;;;;20.70;29.70;;;;;;685818;28;1322;-86
2022/03/14 01:11:28;;;;;;;;;;;20.70;29.50;;;;;;685883;28;914;-83
2022/03/14 01:11:49;;;;;;;;;;;20.70;29.50;;;;;;685923;28;854;-83
2022/03/14 01:12:10;;;;;;;;;;;20.70;29.70;;;;;;685817;28;815;-84
2022/03/14 01:12:31;;;;;;;;;;;20.70;29.70;;;;;;685852;28;842;-84
2022/03/14 01:12:52;;;;;;;;;;;20.80;29.60;;;;;;688466;28;1197;-83
2022/03/14 01:13:12;;;;;;;;;;;20.70;29.60;;;;;;688535;28;843;-83
2022/03/14 01:13:33;;;;;;;;;;;20.70;29.60;;;;;;688557;28;811;-84
2022/03/14 01:13:53;;;;;;;;;;;20.70;29.90;;;;;;688605;28;1000;-82
2022/03/14 01:14:14;;;;;;;;;;;20.70;30.00;;;;;;685803;28;858;-82
2022/03/14 01:14:35;;;;;;;;;;;20.70;29.80;;;;;;685880;28;791;-86
2022/03/14 01:14:56;;;;;;;;;;;20.80;29.90;;;;;;685640;28;2041;-82
2022/03/14 01:15:16;;;;;;;;;;;20.70;29.90;;;;;;685930;28;1004;-83
2022/03/14 01:15:37;;;;;;;;;;;20.80;30.00;;;;;;685884;28;968;-83
2022/03/14 01:15:59;;;;;;;;;;;20.80;30.00;;;;;;685886;28;886;-85
2022/03/14 01:16:19;;;;;;;;;;;20.80;30.30;;;;;;686031;28;886;-85
2022/03/14 01:16:41;;;;;;;;;;;20.80;30.00;;;;;;686074;28;883;-82
2022/03/14 01:17:01;;;;;;;;;;;20.80;30.00;;;;;;686041;28;810;-83
2022/03/14 01:17:22;;;;;;;;;;;20.80;30.00;;;;;;686058;28;940;-85
2022/03/14 01:17:42;;;;;;;;;;;20.80;30.10;;;;;;686061;28;1064;-82
2022/03/14 01:18:05;;;;;;;;;;;20.80;30.00;;;;;;686110;28;827;-83
2022/03/14 01:18:25;;;;;;;;;;;20.80;30.00;;;;;;686033;28;870;-85
2022/03/14 01:18:46;;;;;;;;;;;19.00;29.50;;;;;;686061;28;869;-84
2022/03/14 01:19:11;;;;;;;;;;;20.80;30.40;;;;;;686064;28;802;-82
2022/03/14 01:19:32;;;;;;;;;;;20.80;30.30;;;;;;686120;28;948;-84
2022/03/14 01:19:53;;;;;;;;;;;20.80;30.10;;;;;;685906;28;823;-84
2022/03/14 01:20:13;;;;;;;;;;;20.80;30.10;;;;;;688072;28;1262;-83
2022/03/14 01:20:34;;;;;;;;;;;20.80;30.00;;;;;;688131;28;1329;-83
2022/03/14 01:20:55;;;;;;;;;;;20.80;30.00;;;;;;688445;28;1433;-84
2022/03/14 01:21:15;;;;;;;;;;;20.80;30.00;;;;;;688412;28;896;-85
2022/03/14 01:21:38;;;;;;;;;;;20.80;30.00;;;;;;688527;28;846;-87
2022/03/14 01:21:58;;;;;;;;;;;20.80;30.00;;;;;;688043;28;881;-88
2022/03/14 01:22:19;;;;;;;;;;;20.80;30.10;;;;;;685724;28;874;-84
2022/03/14 01:22:39;;;;;;;;;;;20.80;30.00;;;;;;685767;28;1162;-88
2022/03/14 01:23:00;;;;;;;;;;;20.80;30.00;;;;;;685914;28;775;-87
2022/03/14 01:23:21;;;;;;;;;;;20.80;30.00;;;;;;685893;28;815;-86
2022/03/14 01:23:41;;;;;;;;;;;20.80;30.40;;;;;;685901;28;862;-88
2022/03/14 01:24:02;;;;;;;;;;;20.80;30.00;;;;;;686100;28;1440;-87
2022/03/14 01:24:24;;;;;;;;;;;20.80;30.00;;;;;;688358;28;878;-87
2022/03/14 01:24:45;;;;;;;;;;;20.80;30.00;;;;;;686031;28;1311;-86
2022/03/14 01:25:06;;;;;;;;;;;20.80;30.00;;;;;;686173;28;795;-87
2022/03/14 01:25:27;;;;;;;;;;;20.80;30.00;;;;;;686090;28;858;-84
2022/03/14 01:25:49;;;;;;;;;;;20.80;30.10;;;;;;688699;28;1508;-84
2022/03/14 01:26:09;;;;;;;;;;;20.80;30.00;;;;;;688656;28;795;-87
2022/03/14 01:26:30;;;;;;;;;;;20.80;30.00;;;;;;688625;28;865;-83
2022/03/14 01:26:51;;;;;;;;;;;20.80;30.10;;;;;;688541;28;823;-87
2022/03/14 01:27:11;;;;;;;;;;;20.80;30.10;;;;;;688595;28;811;-85
2022/03/14 01:27:32;;;;;;;;;;;20.80;30.00;;;;;;688101;28;810;-86
2022/03/14 01:27:53;;;;;;;;;;;20.80;30.10;;;;;;686140;28;858;-87
2022/03/14 01:28:14;;;;;;;;;;;20.80;30.00;;;;;;685999;28;814;-86
2022/03/14 01:28:34;;;;;;;;;;;20.80;30.20;;;;;;686006;28;847;-88
2022/03/14 01:28:55;;;;;;;;;;;20.80;30.00;;;;;;686072;28;863;-87
2022/03/14 01:29:18;;;;;;;;;;;20.80;30.00;;;;;;686104;28;830;-83
2022/03/14 01:29:38;;;;;;;;;;;20.80;30.00;;;;;;686087;28;810;-86
2022/03/14 01:29:59;;;;;;;;;;;20.90;30.00;;;;;;686070;28;806;-85
2022/03/14 01:30:21;;;;;;;;;;;20.80;30.00;;;;;;686127;28;811;-84
2022/03/14 01:30:43;;;;;;;;;;;20.80;30.00;;;;;;686013;28;869;-86
2022/03/14 01:31:04;;;;;;;;;;;20.80;30.90;;;;;;686047;28;878;-86
2022/03/14 01:31:25;;;;;;;;;;;20.80;30.20;;;;;;686055;28;822;-86
2022/03/14 01:31:46;;;;;;;;;;;20.80;30.30;;;;;;686047;28;830;-87
2022/03/14 01:32:07;;;;;;;;;;;20.80;30.30;;;;;;686161;28;881;-86
2022/03/14 01:32:27;;;;;;;;;;;20.80;30.00;;;;;;686075;28;906;-86
2022/03/14 01:32:48;;;;;;;;;;;20.80;30.00;;;;;;685929;28;1339;-86
2022/03/14 01:33:09;;;;;;;;;;;20.80;30.00;;;;;;686069;28;861;-87
2022/03/14 01:33:30;;;;;;;;;;;20.80;30.00;;;;;;686154;28;949;-84
2022/03/14 01:33:50;;;;;;;;;;;20.80;30.30;;;;;;686003;28;768;-82
2022/03/14 01:34:11;;;;;;;;;;;20.80;30.00;;;;;;686059;28;925;-82
2022/03/14 01:34:32;;;;;;;;;;;20.80;29.90;;;;;;686006;28;878;-82
2022/03/14 01:34:53;;;;;;;;;;;20.80;29.90;;;;;;685824;28;1899;-85
2022/03/14 01:35:13;;;;;;;;;;;20.80;29.90;;;;;;688353;28;1104;-83
2022/03/14 01:35:35;;;;;;;;;;;20.80;30.50;;;;;;688488;28;1192;-82
2022/03/14 01:35:56;;;;;;;;;;;20.80;30.00;;;;;;688492;28;827;-82
2022/03/14 01:36:17;;;;;;;;;;;20.80;30.20;;;;;;688507;28;865;-82
2022/03/14 01:36:38;;;;;;;;;;;20.80;30.00;;;;;;688624;28;941;-82
2022/03/14 01:36:58;;;;;;;;;;;20.80;30.00;;;;;;687954;28;796;-83
2022/03/14 01:37:19;;;;;;;;;;;20.80;29.90;;;;;;685745;28;1008;-82
2022/03/14 01:37:40;;;;;;;;;;;20.80;29.90;;;;;;685783;28;839;-82
2022/03/14 01:38:00;;;;;;;;;;;20.80;29.90;;;;;;685793;28;953;-82
2022/03/14 01:38:21;;;;;;;;;;;20.80;30.00;;;;;;685780;28;1321;-82
2022/03/14 01:38:41;;;;;;;;;;;20.80;30.00;;;;;;685950;28;780;-82
2022/03/14 01:39:04;;;;;;;;;;;20.80;29.90;;;;;;685742;28;1175;-83
2022/03/14 01:39:25;;;;;;;;;;;20.80;30.00;;;;;;685812;28;871;-83
2022/03/14 01:39:46;;;;;;;;;;;20.80;29.90;;;;;;685799;28;894;-81
2022/03/14 01:40:09;;;;;;;;;;;20.80;29.80;;;;;;685824;28;842;-82
2022/03/14 01:40:30;;;;;;;;;;;20.80;29.60;;;;;;685823;28;803;-81
2022/03/14 01:40:50;;;;;;;;;;;20.80;29.60;;;;;;684019;28;933;-82
2022/03/14 01:41:11;;;;;;;;;;;19.30;28.90;;;;;;685806;28;799;-82
2022/03/14 01:41:32;;;;;;;;;;;20.80;29.50;;;;;;685727;28;878;-82
2022/03/14 01:41:52;;;;;;;;;;;20.80;29.50;;;;;;685760;28;814;-83
2022/03/14 01:42:19;;;;;;;;;;;20.80;29.40;;;;;;685833;28;843;-81
2022/03/14 01:42:39;;;;;;;;;;;20.80;29.40;;;;;;685863;28;933;-83
2022/03/14 01:43:00;;;;;;;;;;;20.80;29.40;;;;;;686014;28;815;-84
2022/03/14 01:43:24;;;;;;;;;;;20.80;29.70;;;;;;686019;28;795;-83
2022/03/14 01:43:47;;;;;;;;;;;20.80;29.40;;;;;;685916;28;866;-81
2022/03/14 01:44:07;;;;;;;;;;;20.80;29.40;;;;;;686072;28;842;-82
2022/03/14 01:44:28;;;;;;;;;;;20.80;29.60;;;;;;686026;28;791;-83
2022/03/14 01:44:48;;;;;;;;;;;20.80;29.40;;;;;;685922;28;1000;-85
2022/03/14 01:45:10;;;;;;;;;;;20.80;29.40;;;;;;685990;28;846;-82
2022/03/14 01:45:31;;;;;;;;;;;20.70;29.40;;;;;;685931;28;1313;-83
2022/03/14 01:45:55;;;;;;;;;;;20.70;29.50;;;;;;685865;28;811;-83
2022/03/14 01:46:16;;;;;;;;;;;20.70;29.30;;;;;;686015;28;877;-83
2022/03/14 01:46:37;;;;;;;;;;;20.70;29.40;;;;;;686000;28;802;-83
2022/03/14 01:46:59;;;;;;;;;;;20.70;29.40;;;;;;686019;28;902;-83
2022/03/14 01:47:20;;;;;;;;;;;20.70;29.40;;;;;;685975;28;819;-81
2022/03/14 01:47:42;;;;;;;;;;;20.70;29.50;;;;;;685891;28;787;-81
2022/03/14 01:48:05;;;;;;;;;;;20.70;29.30;;;;;;685994;28;834;-82
2022/03/14 01:48:25;;;;;;;;;;;20.70;29.30;;;;;;685969;28;791;-82
2022/03/14 01:48:46;;;;;;;;;;;20.80;29.40;;;;;;685930;28;918;-82
2022/03/14 01:49:06;;;;;;;;;;;20.70;29.60;;;;;;688348;28;1220;-82
2022/03/14 01:49:28;;;;;;;;;;;20.80;29.90;;;;;;688503;28;807;-81
2022/03/14 01:49:49;;;;;;;;;;;20.70;29.50;;;;;;688356;28;1150;-82
2022/03/14 01:50:10;;;;;;;;;;;20.70;29.50;;;;;;685742;28;1363;-82
2022/03/14 01:50:31;;;;;;;;;;;20.70;29.40;;;;;;685826;28;775;-82
2022/03/14 01:50:52;;;;;;;;;;;20.70;29.40;;;;;;685785;28;815;-82
2022/03/14 01:51:13;;;;;;;;;;;20.70;29.40;;;;;;685780;28;842;-86
2022/03/14 01:51:34;;;;;;;;;;;20.70;29.50;;;;;;685836;28;873;-82
2022/03/14 01:51:58;;;;;;;;;;;20.70;29.90;;;;;;685830;28;829;-80
2022/03/14 01:52:20;;;;;;;;;;;20.70;29.70;;;;;;685908;28;1325;-82
2022/03/14 01:52:42;;;;;;;;;;;20.70;29.40;;;;;;686047;28;803;-83
2022/03/14 01:53:02;;;;;;;;;;;20.70;29.40;;;;;;686061;28;885;-82
2022/03/14 01:53:23;;;;;;;;;;;20.70;29.60;;;;;;688395;28;1160;-82
2022/03/14 01:53:44;;;;;;;;;;;20.70;29.50;;;;;;688553;28;870;-83
2022/03/14 01:54:05;;;;;;;;;;;20.70;29.50;;;;;;689375;28;1046;-83
2022/03/14 01:54:25;;;;;;;;;;;20.60;29.40;;;;;;689661;28;1107;-85
2022/03/14 01:54:46;;;;;;;;;;;20.70;29.60;;;;;;690233;28;912;-85
2022/03/14 01:55:07;;;;;;;;;;;20.70;29.50;;;;;;690293;28;1887;-87
2022/03/14 01:55:28;;;;;;;;;;;20.70;29.50;;;;;;687954;28;889;-86
2022/03/14 01:55:50;;;;;;;;;;;20.70;30.00;;;;;;687756;28;945;-82
2022/03/14 01:56:12;;;;;;;;;;;20.70;30.00;;;;;;688110;28;861;-87
2022/03/14 01:56:34;;;;;;;;;;;20.70;29.50;;;;;;688272;28;830;-88
2022/03/14 01:56:55;;;;;;;;;;;20.70;29.50;;;;;;688412;28;845;-86
2022/03/14 01:57:16;;;;;;;;;;;20.70;29.60;;;;;;688331;28;795;-89
2022/03/14 01:57:37;;;;;;;;;;;20.70;29.50;;;;;;688544;28;1072;-82
2022/03/14 01:57:58;;;;;;;;;;;20.70;29.70;;;;;;688266;28;1021;-85
2022/03/14 01:58:18;;;;;;;;;;;20.70;29.60;;;;;;688570;28;806;-85
2022/03/14 01:58:39;;;;;;;;;;;20.70;29.50;;;;;;688283;28;1334;-86
2022/03/14 01:59:00;;;;;;;;;;;20.70;29.50;;;;;;691247;28;1025;-86
2022/03/14 01:59:21;;;;;;;;;;;20.70;29.50;;;;;;691194;28;1012;-83
2022/03/14 01:59:42;;;;;;;;;;;20.70;29.50;;;;;;687583;28;1117;-86
2022/03/14 02:00:04;;;;;;;;;;;20.70;29.50;;;;;;687236;28;1084;-84
2022/03/14 02:00:24;;;;;;;;;;;20.70;29.60;;;;;;687374;28;1106;-87
2022/03/14 02:00:45;;;;;;;;;;;20.70;29.50;;;;;;685164;28;839;-87
2022/03/14 02:01:05;;;;;;;;;;;20.70;29.50;;;;;;685004;28;1249;-86
2022/03/14 02:01:26;;;;;;;;;;;20.70;29.50;;;;;;684466;29;1029;-87
2022/03/14 02:01:47;;;;;;;;;;;20.70;29.70;;;;;;682729;29;1493;-83
2022/03/14 02:02:07;;;;;;;;;;;20.70;29.50;;;;;;684561;29;826;-86
2022/03/14 02:02:28;;;;;;;;;;;18.70;28.60;;;;;;684656;28;985;-88
2022/03/14 02:02:49;;;;;;;;;;;20.70;29.80;;;;;;686865;28;1068;-86
2022/03/14 02:03:09;;;;;;;;;;;20.70;29.50;;;;;;686843;28;835;-87
2022/03/14 02:03:30;;;;;;;;;;;20.60;29.40;;;;;;687203;28;847;-88
2022/03/14 02:03:50;;;;;;;;;;;20.70;29.50;;;;;;687139;28;1333;-87
2022/03/14 02:04:11;;;;;;;;;;;20.70;29.70;;;;;;686853;28;1366;-88
2022/03/14 02:04:32;;;;;;;;;;;20.60;29.40;;;;;;686916;28;918;-87
2022/03/14 02:04:53;;;;;;;;;;;20.60;29.40;;;;;;687054;28;902;-87
2022/03/14 02:05:16;;;;;;;;;;;20.60;29.50;;;;;;687047;28;831;-87
2022/03/14 02:05:37;;;;;;;;;;;20.60;29.30;;;;;;686493;28;1357;-88
2022/03/14 02:05:58;;;;;;;;;;;20.70;29.50;;;;;;686662;28;874;-86
2022/03/14 02:06:19;;;;;;;;;;;20.70;29.50;;;;;;686365;28;842;-85
2022/03/14 02:06:39;;;;;;;;;;;20.70;29.50;;;;;;686239;28;882;-87
2022/03/14 02:07:00;;;;;;;;;;;20.60;29.40;;;;;;686287;28;838;-88
2022/03/14 02:07:21;;;;;;;;;;;20.70;29.40;;;;;;686638;28;851;-87
2022/03/14 02:07:41;;;;;;;;;;;20.60;29.50;;;;;;686254;28;811;-87
2022/03/14 02:08:02;;;;;;;;;;;20.60;29.50;;;;;;688483;28;823;-86